createdAt,value
2022-12-25T00:01:57.853Z,101657.00
2022-12-25T00:04:47.147Z,101664.78
2022-12-25T00:07:35.090Z,101661.56
2022-12-25T00:10:23.026Z,101654.78
2022-12-25T00:13:11.001Z,101644.25
2022-12-25T00:15:59.060Z,101648.63
2022-12-25T00:18:47.903Z,101651.00
2022-12-25T00:21:37.274Z,101648.97
2022-12-25T00:24:25.294Z,101646.59
2022-12-25T00:27:13.226Z,101644.88
2022-12-25T00:30:01.784Z,101656.19
2022-12-25T00:32:49.841Z,101661.44
2022-12-25T00:35:37.877Z,101661.28
2022-12-25T00:38:27.544Z,101655.66
2022-12-25T00:41:18.021Z,101664.22
2022-12-25T00:44:06.209Z,101669.03
2022-12-25T00:46:54.292Z,101660.47
2022-12-25T00:49:42.404Z,101655.09
2022-12-25T00:52:30.490Z,101660.66
2022-12-25T00:55:19.887Z,101666.00
2022-12-25T00:58:07.829Z,101662.63
2022-12-25T01:00:56.274Z,101667.41
2022-12-25T01:03:44.487Z,101670.75
2022-12-25T01:06:32.615Z,101673.97
2022-12-25T01:09:37.893Z,101670.56
2022-12-25T01:12:27.172Z,101665.75
2022-12-25T01:15:15.208Z,101656.31
2022-12-25T01:18:07.771Z,101659.06
2022-12-25T01:20:56.409Z,101664.16
2022-12-25T01:23:44.747Z,101646.97
2022-12-25T01:26:32.701Z,101639.28
2022-12-25T01:29:22.066Z,101643.91
2022-12-25T01:32:10.209Z,101642.13
2022-12-25T01:34:58.240Z,101660.41
2022-12-25T01:37:46.188Z,101665.19
2022-12-25T01:40:34.962Z,101663.06
2022-12-25T01:43:25.168Z,101657.88
2022-12-25T01:46:14.567Z,101665.44
2022-12-25T01:49:06.017Z,101670.28
2022-12-25T01:51:59.436Z,101669.44
2022-12-25T01:54:51.612Z,101669.91
2022-12-25T01:57:41.538Z,101668.13
2022-12-25T02:00:29.502Z,101681.09
2022-12-25T02:03:19.180Z,101674.28
2022-12-25T02:06:08.513Z,101673.66
2022-12-25T02:08:56.674Z,101669.75
2022-12-25T02:12:00.309Z,101667.16
2022-12-25T02:14:50.317Z,101666.63
2022-12-25T02:17:44.113Z,101659.66
2022-12-25T02:21:01.121Z,101659.03
2022-12-25T02:24:20.577Z,101654.09
2022-12-25T02:27:16.896Z,101650.16
2022-12-25T02:30:09.529Z,101647.00
2022-12-25T02:33:15.594Z,101637.03
2022-12-25T02:36:08.433Z,101632.47
2022-12-25T02:39:19.088Z,101636.66
2022-12-25T02:42:12.882Z,101632.66
2022-12-25T02:45:17.788Z,101618.91
2022-12-25T02:48:26.792Z,101617.28
2022-12-25T02:51:35.025Z,101612.94
2022-12-25T02:54:45.650Z,101599.44
2022-12-25T02:57:55.174Z,101604.16
2022-12-25T03:01:05.342Z,101587.44
2022-12-25T03:04:14.673Z,101586.66
2022-12-25T03:07:10.861Z,101582.66
2022-12-25T03:10:23.677Z,101596.84
2022-12-25T03:13:17.277Z,101594.66
2022-12-25T03:16:23.987Z,101599.66
2022-12-25T03:19:27.284Z,101603.84
2022-12-25T03:22:37.266Z,101602.66
2022-12-25T03:25:42.703Z,101602.25
2022-12-25T03:28:30.694Z,101600.47
2022-12-25T03:31:25.765Z,101591.47
2022-12-25T03:34:48.944Z,101582.50
2022-12-25T03:38:12.663Z,101590.72
2022-12-25T03:41:27.849Z,101583.13
2022-12-25T03:44:47.039Z,101577.16
2022-12-25T03:47:56.609Z,101574.13
2022-12-25T03:51:09.624Z,101594.28
2022-12-25T03:54:20.237Z,101583.91
2022-12-25T03:57:27.253Z,101586.28
2022-12-25T04:00:33.512Z,101572.47
2022-12-25T04:03:39.030Z,101580.41
2022-12-25T04:06:45.787Z,101585.41
2022-12-25T04:09:51.214Z,101575.50
2022-12-25T04:12:56.911Z,101574.44
2022-12-25T04:16:02.687Z,101567.47
2022-12-25T04:19:08.380Z,101563.06
2022-12-25T04:22:15.224Z,101575.19
2022-12-25T04:25:20.930Z,101577.19
2022-12-25T04:28:26.860Z,101565.56
2022-12-25T04:31:32.631Z,101573.66
2022-12-25T04:34:38.118Z,101566.34
2022-12-25T04:37:27.433Z,101555.47
2022-12-25T04:40:15.937Z,101565.66
2022-12-25T04:43:03.895Z,101552.69
2022-12-25T04:45:54.011Z,101548.50
2022-12-25T04:48:41.962Z,101537.78
2022-12-25T04:51:29.880Z,101531.22
2022-12-25T04:54:19.226Z,101528.84
2022-12-25T04:57:07.256Z,101517.69
2022-12-25T04:59:55.258Z,101511.44
2022-12-25T05:02:43.292Z,101509.56
2022-12-25T05:05:31.434Z,101513.34
2022-12-25T05:08:19.405Z,101517.34
2022-12-25T05:11:10.278Z,101506.81
2022-12-25T05:13:58.519Z,101501.47
2022-12-25T05:16:46.689Z,101514.66
2022-12-25T05:19:34.692Z,101513.03
2022-12-25T05:22:22.665Z,101507.13
2022-12-25T05:25:10.736Z,101506.50
2022-12-25T05:28:00.131Z,101510.72
2022-12-25T05:30:48.453Z,101512.91
2022-12-25T05:33:36.558Z,101515.34
2022-12-25T05:36:24.595Z,101518.53
2022-12-25T05:39:12.528Z,101519.91
2022-12-25T05:42:01.010Z,101518.09
2022-12-25T05:44:50.295Z,101512.91
2022-12-25T05:47:38.309Z,101507.13
2022-12-25T05:50:26.347Z,101491.59
2022-12-25T05:53:16.127Z,101490.97
2022-12-25T05:56:06.140Z,101488.75
2022-12-25T05:58:55.247Z,101476.00
2022-12-25T06:01:44.744Z,101477.00
2022-12-25T06:04:32.820Z,101471.03
2022-12-25T06:07:20.758Z,101461.66
2022-12-25T06:10:09.875Z,101469.41
2022-12-25T06:12:57.859Z,101465.25
2022-12-25T06:15:45.953Z,101467.81
2022-12-25T06:18:37.719Z,101464.06
2022-12-25T06:21:25.737Z,101452.09
2022-12-25T06:24:19.327Z,101447.13
2022-12-25T06:27:09.323Z,101448.44
2022-12-25T06:29:57.275Z,101454.41
2022-12-25T06:32:45.442Z,101457.78
2022-12-25T06:35:34.754Z,101450.84
2022-12-25T06:38:22.725Z,101450.69
2022-12-25T06:41:13.259Z,101462.78
2022-12-25T06:44:02.649Z,101464.78
2022-12-25T06:46:51.123Z,101462.66
2022-12-25T06:49:39.228Z,101458.19
2022-12-25T06:52:28.612Z,101458.00
2022-12-25T06:55:16.760Z,101456.81
2022-12-25T06:58:05.050Z,101452.44
2022-12-25T07:00:53.025Z,101450.41
2022-12-25T07:03:41.007Z,101456.38
2022-12-25T07:06:29.608Z,101452.44
2022-12-25T07:09:18.905Z,101446.53
2022-12-25T07:12:08.441Z,101453.09
2022-12-25T07:14:56.859Z,101455.84
2022-12-25T07:17:44.848Z,101465.38
2022-12-25T07:20:32.842Z,101460.06
2022-12-25T07:23:20.745Z,101464.94
2022-12-25T07:26:11.667Z,101482.72
2022-12-25T07:28:59.690Z,101477.53
2022-12-25T07:31:47.987Z,101487.34
2022-12-25T07:34:35.948Z,101494.56
2022-12-25T07:37:23.936Z,101483.16
2022-12-25T07:40:12.355Z,101482.19
2022-12-25T07:43:01.602Z,101483.97
2022-12-25T07:45:49.686Z,101481.97
2022-12-25T07:48:38.136Z,101480.56
2022-12-25T07:51:26.039Z,101495.53
2022-12-25T07:54:14.049Z,101498.13
2022-12-25T07:57:02.024Z,101494.50
2022-12-25T07:59:51.466Z,101509.72
2022-12-25T08:02:39.704Z,101498.75
2022-12-25T08:05:27.909Z,101500.34
2022-12-25T08:08:15.864Z,101506.72
2022-12-25T08:11:03.917Z,101517.47
2022-12-25T08:13:51.905Z,101507.50
2022-12-25T08:16:42.257Z,101494.75
2022-12-25T08:19:30.392Z,101499.31
2022-12-25T08:22:18.292Z,101497.88
2022-12-25T08:25:06.494Z,101488.84
2022-12-25T08:27:54.490Z,101499.59
2022-12-25T08:30:42.640Z,101492.22
2022-12-25T08:33:32.018Z,101497.00
2022-12-25T08:36:21.164Z,101491.22
2022-12-25T08:39:09.711Z,101505.78
2022-12-25T08:41:57.702Z,101502.38
2022-12-25T08:44:45.662Z,101504.16
2022-12-25T08:47:33.585Z,101497.81
2022-12-25T08:50:22.921Z,101503.78
2022-12-25T08:53:10.846Z,101511.38
2022-12-25T08:55:59.964Z,101509.78
2022-12-25T08:58:48.254Z,101507.38
2022-12-25T09:01:36.353Z,101511.19
2022-12-25T09:04:24.452Z,101510.97
2022-12-25T09:07:13.980Z,101532.53
2022-12-25T09:10:01.946Z,101543.31
2022-12-25T09:12:49.937Z,101538.81
2022-12-25T09:15:39.094Z,101535.25
2022-12-25T09:18:27.317Z,101527.72
2022-12-25T09:21:17.128Z,101528.69
2022-12-25T09:24:06.874Z,101526.53
2022-12-25T09:26:54.838Z,101525.19
2022-12-25T09:29:42.769Z,101520.00
2022-12-25T09:32:30.970Z,101516.00
2022-12-25T09:35:19.067Z,101515.16
2022-12-25T09:38:07.081Z,101514.38
2022-12-25T09:41:02.248Z,101508.22
2022-12-25T09:43:54.136Z,101505.81
2022-12-25T09:46:46.269Z,101507.00
2022-12-25T09:49:39.820Z,101497.25
2022-12-25T09:52:38.005Z,101485.22
2022-12-25T09:55:27.867Z,101489.84
2022-12-25T09:58:17.315Z,101499.59
2022-12-25T10:01:17.452Z,101494.78
2022-12-25T10:04:23.174Z,101496.41
2022-12-25T10:07:19.606Z,101493.00
2022-12-25T10:10:25.134Z,101483.81
2022-12-25T10:13:27.689Z,101486.41
2022-12-25T10:16:24.326Z,101492.03
2022-12-25T10:19:23.153Z,101488.25
2022-12-25T10:22:17.604Z,101487.69
2022-12-25T10:25:07.094Z,101481.09
2022-12-25T10:27:59.286Z,101476.31
2022-12-25T10:30:51.323Z,101484.34
2022-12-25T10:33:39.341Z,101484.91
2022-12-25T10:36:29.453Z,101478.06
2022-12-25T10:39:19.571Z,101476.91
2022-12-25T10:42:25.046Z,101475.69
2022-12-25T10:45:13.289Z,101461.31
2022-12-25T10:48:07.975Z,101454.78
2022-12-25T10:50:56.897Z,101444.84
2022-12-25T10:53:44.910Z,101439.28
2022-12-25T10:56:32.836Z,101426.53
2022-12-25T10:59:20.865Z,101417.41
2022-12-25T11:02:17.020Z,101418.84
2022-12-25T11:05:10.453Z,101415.06
2022-12-25T11:08:00.704Z,101414.91
2022-12-25T11:10:54.664Z,101412.13
2022-12-25T11:13:51.959Z,101406.13
2022-12-25T11:16:41.309Z,101412.16
2022-12-25T11:19:31.625Z,101413.72
2022-12-25T11:22:20.917Z,101403.53
2022-12-25T11:25:21.814Z,101406.53
2022-12-25T11:28:13.382Z,101407.31
2022-12-25T11:31:03.995Z,101400.31
2022-12-25T11:33:56.029Z,101401.47
2022-12-25T11:36:46.103Z,101398.06
2022-12-25T11:39:37.180Z,101401.00
2022-12-25T11:42:29.129Z,101397.44
2022-12-25T11:45:20.640Z,101386.03
2022-12-25T11:48:14.636Z,101380.69
2022-12-25T11:51:04.341Z,101376.69
2022-12-25T11:53:55.105Z,101347.94
2022-12-25T11:56:44.599Z,101337.59
2022-12-25T11:59:39.222Z,101336.44
2022-12-25T12:02:35.063Z,101335.66
2022-12-25T12:05:27.161Z,101340.03
2022-12-25T12:08:15.624Z,101346.63
2022-12-25T12:11:19.529Z,101347.63
2022-12-25T12:14:27.214Z,101343.41
2022-12-25T12:17:18.369Z,101345.41
2022-12-25T12:20:14.659Z,101347.38
2022-12-25T12:23:11.781Z,101346.97
2022-12-25T12:26:00.309Z,101342.56
2022-12-25T12:28:50.026Z,101335.78
2022-12-25T12:31:42.384Z,101338.78
2022-12-25T12:34:37.329Z,101340.59
2022-12-25T12:37:30.904Z,101333.59
2022-12-25T12:40:30.014Z,101318.47
2022-12-25T12:43:31.127Z,101315.69
2022-12-25T12:46:29.801Z,101310.50
2022-12-25T12:49:24.988Z,101302.75
2022-12-25T12:52:24.649Z,101300.94
2022-12-25T12:55:13.602Z,101293.31
2022-12-25T12:58:03.548Z,101287.94
2022-12-25T13:00:57.428Z,101288.97
2022-12-25T13:03:58.545Z,101285.22
2022-12-25T13:06:54.986Z,101289.59
2022-12-25T13:09:57.712Z,101297.38
2022-12-25T13:12:45.851Z,101299.94
2022-12-25T13:15:16.872Z,101307.09
2022-12-25T13:17:46.771Z,101303.72
2022-12-25T13:20:24.711Z,101303.47
2022-12-25T13:22:53.705Z,101306.25
2022-12-25T13:25:22.851Z,101306.84
2022-12-25T13:27:56.917Z,101301.88
2022-12-25T13:30:25.870Z,101299.09
2022-12-25T13:32:53.610Z,101301.31
2022-12-25T13:35:23.908Z,101304.09
2022-12-25T13:37:54.774Z,101310.44
2022-12-25T13:40:25.975Z,101298.09
2022-12-25T13:42:58.641Z,101305.47
2022-12-25T13:45:28.247Z,101297.25
2022-12-25T13:47:56.253Z,101312.00
2022-12-25T13:50:46.626Z,101307.03
2022-12-25T13:53:35.898Z,101304.63
2022-12-25T13:56:23.896Z,101303.88
2022-12-25T13:59:17.244Z,101306.03
2022-12-25T14:02:17.219Z,101289.31
2022-12-25T14:05:22.761Z,101302.84
2022-12-25T14:08:15.831Z,101297.66
2022-12-25T14:11:07.015Z,101303.00
2022-12-25T14:13:58.818Z,101297.84
2022-12-25T14:16:49.769Z,101290.06
2022-12-25T14:19:37.909Z,101278.53
2022-12-25T14:22:26.959Z,101274.31
2022-12-25T14:25:16.491Z,101273.53
2022-12-25T14:28:09.997Z,101278.72
2022-12-25T14:30:58.031Z,101270.75
2022-12-25T14:33:47.236Z,101263.75
2022-12-25T14:36:35.709Z,101286.66
2022-12-25T14:39:30.778Z,101289.44
2022-12-25T14:42:22.775Z,101280.28
2022-12-25T14:45:27.831Z,101278.66
2022-12-25T14:48:24.515Z,101280.28
2022-12-25T14:51:18.205Z,101284.47
2022-12-25T14:54:16.565Z,101288.63
2022-12-25T14:57:04.644Z,101287.47
2022-12-25T15:00:02.776Z,101284.69
2022-12-25T15:02:54.833Z,101280.69
2022-12-25T15:05:42.878Z,101286.91
2022-12-25T15:08:33.484Z,101279.53
2022-12-25T15:11:21.429Z,101276.72
2022-12-25T15:14:09.741Z,101274.94
2022-12-25T15:17:01.510Z,101267.16
2022-12-25T15:19:57.534Z,101274.94
2022-12-25T15:23:17.867Z,101266.56
2022-12-25T15:25:54.071Z,101267.56
2022-12-25T15:28:42.854Z,101272.34
2022-12-25T15:31:33.195Z,101272.91
2022-12-25T15:34:21.989Z,101268.75
2022-12-25T15:37:11.547Z,101260.78
2022-12-25T15:39:59.621Z,101256.78
2022-12-25T15:42:50.001Z,101251.22
2022-12-25T15:45:38.249Z,101244.25
2022-12-25T15:48:26.183Z,101251.81
2022-12-25T15:51:14.077Z,101235.47
2022-12-25T15:54:03.737Z,101230.69
2022-12-25T15:56:54.074Z,101232.50
2022-12-25T15:59:42.040Z,101241.63
2022-12-25T16:02:30.120Z,101236.44
2022-12-25T16:05:18.460Z,101224.91
2022-12-25T16:08:06.792Z,101227.50
2022-12-25T16:10:56.055Z,101232.84
2022-12-25T16:13:44.252Z,101220.31
2022-12-25T16:16:32.422Z,101222.09
2022-12-25T16:19:20.357Z,101227.06
2022-12-25T16:22:13.011Z,101219.09
2022-12-25T16:25:01.367Z,101218.72
2022-12-25T16:27:50.770Z,101217.88
2022-12-25T16:30:40.171Z,101215.03
2022-12-25T16:33:28.458Z,101228.56
2022-12-25T16:36:19.492Z,101226.78
2022-12-25T16:39:11.451Z,101221.81
2022-12-25T16:41:59.539Z,101226.97
2022-12-25T16:44:48.858Z,101230.59
2022-12-25T16:47:36.822Z,101232.56
2022-12-25T16:50:25.009Z,101235.75
2022-12-25T16:53:13.283Z,101232.75
2022-12-25T16:56:06.988Z,101230.38
2022-12-25T16:58:55.527Z,101234.97
2022-12-25T17:01:45.275Z,101222.41
2022-12-25T17:04:33.359Z,101235.75
2022-12-25T17:07:21.317Z,101229.97
2022-12-25T17:10:10.900Z,101222.22
2022-12-25T17:12:59.235Z,101225.00
2022-12-25T17:15:50.600Z,101219.22
2022-12-25T17:18:40.304Z,101222.78
2022-12-25T17:21:29.531Z,101222.00
2022-12-25T17:24:18.346Z,101220.19
2022-12-25T17:27:08.516Z,101216.44
2022-12-25T17:29:56.429Z,101215.44
2022-12-25T17:32:44.328Z,101212.06
2022-12-25T17:35:35.975Z,101219.84
2022-12-25T17:38:23.870Z,101225.97
2022-12-25T17:41:14.949Z,101230.38
2022-12-25T17:44:02.861Z,101224.41
2022-12-25T17:46:51.546Z,101207.25
2022-12-25T17:49:39.447Z,101216.25
2022-12-25T17:52:28.715Z,101227.81
2022-12-25T17:55:16.758Z,101205.75
2022-12-25T17:58:04.726Z,101218.47
2022-12-25T18:00:53.703Z,101203.34
2022-12-25T18:03:42.155Z,101198.00
2022-12-25T18:06:30.233Z,101191.22
2022-12-25T18:09:19.846Z,101186.03
2022-12-25T18:12:09.296Z,101186.63
2022-12-25T18:14:57.266Z,101200.97
2022-12-25T18:17:45.281Z,101210.53
2022-12-25T18:20:39.564Z,101221.31
2022-12-25T18:23:28.352Z,101222.09
2022-12-25T18:26:17.899Z,101226.84
2022-12-25T18:29:06.827Z,101222.47
2022-12-25T18:31:55.418Z,101222.06
2022-12-25T18:34:43.499Z,101229.81
2022-12-25T18:37:35.895Z,101231.66
2022-12-25T18:40:27.855Z,101235.22
2022-12-25T18:43:17.798Z,101228.06
2022-12-25T18:46:07.206Z,101223.69
2022-12-25T18:48:55.923Z,101226.88
2022-12-25T18:51:43.981Z,101228.06
2022-12-25T18:54:32.085Z,101226.88
2022-12-25T18:57:20.094Z,101219.31
2022-12-25T19:00:10.814Z,101217.91
2022-12-25T19:02:59.929Z,101197.41
2022-12-25T19:05:48.112Z,101196.41
2022-12-25T19:08:36.232Z,101204.75
2022-12-25T19:11:24.669Z,101197.41
2022-12-25T19:14:12.767Z,101194.63
2022-12-25T19:17:02.137Z,101199.41
2022-12-25T19:19:50.121Z,101211.16
2022-12-25T19:22:38.090Z,101211.31
2022-12-25T19:25:26.065Z,101217.69
2022-12-25T19:28:14.046Z,101230.44
2022-12-25T19:31:03.265Z,101238.25
2022-12-25T19:33:52.643Z,101227.88
2022-12-25T19:36:40.632Z,101224.91
2022-12-25T19:39:28.669Z,101226.69
2022-12-25T19:42:18.791Z,101223.34
2022-12-25T19:45:08.031Z,101234.09
2022-12-25T19:47:58.096Z,101214.41
2022-12-25T19:50:49.460Z,101202.66
2022-12-25T19:53:37.460Z,101224.75
2022-12-25T19:56:25.893Z,101232.88
2022-12-25T19:59:14.601Z,101232.09
2022-12-25T20:02:02.667Z,101222.34
2022-12-25T20:04:51.032Z,101230.28
2022-12-25T20:07:40.426Z,101235.72
2022-12-25T20:10:28.347Z,101219.00
2022-12-25T20:13:16.887Z,101214.41
2022-12-25T20:16:06.181Z,101216.16
2022-12-25T20:18:56.455Z,101216.00
2022-12-25T20:21:44.442Z,101216.41
2022-12-25T20:24:33.723Z,101222.38
2022-12-25T20:27:21.672Z,101213.00
2022-12-25T20:30:10.612Z,101215.81
2022-12-25T20:32:58.764Z,101224.78
2022-12-25T20:35:47.233Z,101230.53
2022-12-25T20:38:36.949Z,101224.34
2022-12-25T20:41:28.453Z,101224.75
2022-12-25T20:44:17.264Z,101227.72
2022-12-25T20:47:05.688Z,101235.09
2022-12-25T20:49:54.315Z,101227.31
2022-12-25T20:52:42.274Z,101216.56
2022-12-25T20:55:30.198Z,101229.94
2022-12-25T20:58:19.565Z,101234.06
2022-12-25T21:01:10.101Z,101238.63
2022-12-25T21:03:58.700Z,101232.44
2022-12-25T21:06:47.837Z,101242.22
2022-12-25T21:09:35.851Z,101242.41
2022-12-25T21:12:25.228Z,101250.34
2022-12-25T21:15:15.908Z,101261.88
2022-12-25T21:18:04.186Z,101260.91
2022-12-25T21:20:55.633Z,101259.13
2022-12-25T21:23:43.973Z,101269.06
2022-12-25T21:26:32.339Z,101268.84
2022-12-25T21:29:22.900Z,101262.09
2022-12-25T21:32:29.940Z,101267.06
2022-12-25T21:35:18.086Z,101268.84
2022-12-25T21:38:06.425Z,101272.81
2022-12-25T21:40:54.368Z,101269.03
2022-12-25T21:43:42.901Z,101260.06
2022-12-25T21:46:31.098Z,101267.66
2022-12-25T21:49:34.562Z,101261.09
2022-12-25T21:52:22.503Z,101253.34
2022-12-25T21:55:10.639Z,101253.50
2022-12-25T21:57:58.607Z,101250.16
2022-12-25T22:00:46.623Z,101251.97
2022-12-25T22:03:34.738Z,101241.22
2022-12-25T22:06:41.811Z,101237.41
2022-12-25T22:09:30.206Z,101236.06
2022-12-25T22:12:37.880Z,101240.81
2022-12-25T22:15:39.872Z,101250.78
2022-12-25T22:18:45.649Z,101266.91
2022-12-25T22:21:34.985Z,101263.72
2022-12-25T22:24:22.925Z,101257.34
2022-12-25T22:27:11.065Z,101243.19
2022-12-25T22:29:59.679Z,101244.41
2022-12-25T22:32:48.100Z,101233.47
2022-12-25T22:35:36.077Z,101252.19
2022-12-25T22:38:25.458Z,101251.59
2022-12-25T22:41:13.587Z,101244.88
2022-12-25T22:44:18.298Z,101231.94
2022-12-25T22:47:06.532Z,101226.56
2022-12-25T22:49:54.570Z,101246.66
2022-12-25T22:52:43.172Z,101245.09
2022-12-25T22:55:32.504Z,101257.63
2022-12-25T22:58:20.479Z,101252.44
2022-12-25T23:01:09.640Z,101238.09
2022-12-25T23:03:57.629Z,101230.94
2022-12-25T23:06:46.398Z,101233.53
2022-12-25T23:09:35.277Z,101235.50
2022-12-25T23:12:42.430Z,101237.31
2022-12-25T23:15:31.197Z,101224.75
2022-12-25T23:18:35.922Z,101239.47
2022-12-25T23:21:44.716Z,101241.88
2022-12-25T23:24:50.198Z,101257.00
2022-12-25T23:27:39.602Z,101247.03
2022-12-25T23:30:27.666Z,101255.03
2022-12-25T23:33:15.590Z,101265.38
2022-12-25T23:36:03.558Z,101268.97
2022-12-25T23:38:51.584Z,101275.94
2022-12-25T23:41:40.117Z,101267.56
2022-12-25T23:44:29.846Z,101275.34
2022-12-25T23:47:17.888Z,101278.31
2022-12-25T23:50:06.695Z,101289.88
2022-12-25T23:52:54.683Z,101286.50
2022-12-25T23:55:43.413Z,101281.94
2022-12-25T23:58:31.474Z,101286.50
